aviador You're here:

LFLP Decoded Metar

ANNECY in FRANCE
Report Time2017-09-25 16:30:00
UTC Time2017-09-25 16:47:50
Flight Rules vfr VFR
WindVRB at 01 kt
Visibility9999 m
Phenomena:N/A
Clouds:N/A
Expected CloudBase > 2,800 ft AGL from Temp-Dew spread
CeilingNone
Temp18°C (ISA +6)
Dew Point11°C (64% RH)
QNH1019 hPa
Density Alt2,205 ft
Elevation1,519 ft
Report Wrong Elevation
Raw Report
METAR LFLP 251630Z AUTO VRB01KT CAVOK 18/11 Q1019 NOSIG=

Extra information for LFLP:More info

Metar Taf Metar & Taf Last 4 Metars F.Rules Stats Wind Profile Meteogram Temp Stats Airport Information Weather charts Add Link Nearby VenuesMetar ALERT Operation Metar Decoded Social comments